»·PEaware :: N204LF KSBD-KBUR

N204LF :: KSBD-KBUR

FLIGHT INFORMATION

Flight Status: Arrived
Operator: Privately registered:
United States
More flights under this callsign
Pilot: Anonymous 41609 (41609)
Aircraft: CIRRUS SR-22
(SR22)
More flights by this aircraft type
Origin: KSBD San Bernardino Intl
United States
Destination: KBUR Bob Hope-Burbank
United States
More flights between these airports :: More routes between these airports
Route: PDZ V186 VNY
File this flight plan on PilotEdge
Remarks:
Altitude:
(Current/Filed)
6,000ft
Speed:
(Current/Filed)
170kts
Departed: 24-Jan-23 06:56 PM
Arrived: 24-Jan-23 07:39 PM
Distance/Time
Traveled:
56nm/0:43
Distance/Time
To Go:
Arrived

Flight Plot

Page will automatically refresh every two minutes.


Map Options




Map Legend


Flown Route
Filed Route
Departure Airport
Arrival Airport
Navaid (VOR, NDB)
Fix

Horizontal Profiles

Position Reports

Time Latitude Longitude Heading Altitude Ground
Speed
24-Jan-23 18:38 34.102166 -117.224730 94 1145ft 0kts
24-Jan-23 18:39 34.102166 -117.224730 94 1145ft 0kts
24-Jan-23 18:40 34.102166 -117.224730 94 1145ft 0kts
24-Jan-23 18:41 34.102166 -117.224730 94 1145ft 0kts
24-Jan-23 18:42 34.102166 -117.224730 94 1145ft 0kts
24-Jan-23 18:43 34.102166 -117.224730 94 1145ft 0kts
24-Jan-23 18:44 34.102166 -117.224730 94 1145ft 0kts
24-Jan-23 18:45 34.102166 -117.224730 94 1145ft 0kts
24-Jan-23 18:46 34.102166 -117.224730 94 1145ft 0kts
24-Jan-23 18:47 34.102166 -117.224730 96 1145ft 0kts
24-Jan-23 18:48 34.100479 -117.225638 237 1142ft 13kts
24-Jan-23 18:49 34.099378 -117.227789 213 1136ft 12kts
24-Jan-23 18:50 34.097459 -117.233771 251 1121ft 25kts
24-Jan-23 18:51 34.094732 -117.243012 251 1097ft 34kts
24-Jan-23 18:52 34.092331 -117.250841 208 1078ft 5kts
24-Jan-23 18:53 34.091682 -117.250804 169 1078ft 0kts
24-Jan-23 18:54 34.090949 -117.249920 97 1080ft 9kts
24-Jan-23 18:55 34.095525 -117.226500 88 1828ft 86kts
24-Jan-23 18:56 34.080202 -117.235349 265 2972ft 107kts
24-Jan-23 18:57 34.069874 -117.275359 238 4259ft 113kts
24-Jan-23 18:58 34.048962 -117.312322 234 5566ft 114kts
24-Jan-23 18:59 34.025346 -117.351887 234 6020ft 160kts
24-Jan-23 19:00 33.996734 -117.399667 234 6005ft 177kts
24-Jan-23 19:01 33.968354 -117.446924 233 6054ft 175kts
24-Jan-23 19:02 33.939330 -117.495229 232 6050ft 179kts
24-Jan-23 19:03 33.924854 -117.547990 291 6095ft 173kts
24-Jan-23 19:04 33.941652 -117.602278 291 6088ft 176kts
24-Jan-23 19:05 33.959008 -117.656174 290 6052ft 177kts
24-Jan-23 19:06 33.975872 -117.708750 290 6044ft 176kts
24-Jan-23 19:07 33.992633 -117.761098 290 6005ft 177kts
24-Jan-23 19:08 34.009870 -117.814979 290 6001ft 176kts
24-Jan-23 19:09 34.027259 -117.869531 291 6003ft 176kts
24-Jan-23 19:10 34.044410 -117.923167 292 6004ft 176kts
24-Jan-23 19:11 34.065486 -117.974043 290 6003ft 176kts
24-Jan-23 19:12 34.082252 -118.028043 290 6005ft 176kts
24-Jan-23 19:13 34.098485 -118.080956 290 6038ft 176kts
24-Jan-23 19:14 34.114646 -118.133675 289 6017ft 165kts
24-Jan-23 19:15 34.129202 -118.181326 290 5988ft 139kts
24-Jan-23 19:16 34.140960 -118.221233 276 6000ft 125kts
24-Jan-23 19:17 34.142325 -118.261890 271 5993ft 120kts
24-Jan-23 19:18 34.143341 -118.300875 271 6007ft 119kts
24-Jan-23 19:19 34.144287 -118.339245 273 6004ft 124kts
24-Jan-23 19:20 34.145247 -118.380284 274 6007ft 127kts
24-Jan-23 19:21 34.146418 -118.422985 272 6002ft 127kts
24-Jan-23 19:22 34.147504 -118.464586 272 6001ft 128kts
24-Jan-23 19:23 34.153775 -118.505422 298 5706ft 133kts
24-Jan-23 19:24 34.171461 -118.544684 299 5257ft 138kts
24-Jan-23 19:25 34.189491 -118.585083 298 4760ft 137kts
24-Jan-23 19:26 34.202059 -118.626981 271 4031ft 135kts
24-Jan-23 19:27 34.202385 -118.665403 267 3979ft 97kts
24-Jan-23 19:28 34.186334 -118.686331 167 3860ft 116kts
24-Jan-23 19:29 34.185881 -118.654183 49 3775ft 122kts
24-Jan-23 19:30 34.200761 -118.619881 82 3703ft 120kts
24-Jan-23 19:31 34.200567 -118.578971 97 3537ft 127kts
24-Jan-23 19:32 34.199973 -118.536527 91 3282ft 135kts
24-Jan-23 19:33 34.199396 -118.494789 91 2765ft 123kts
24-Jan-23 19:34 34.199017 -118.460265 89 2259ft 92kts
24-Jan-23 19:35 34.198682 -118.432191 90 1780ft 83kts
24-Jan-23 19:36 34.198347 -118.404461 90 1364ft 95kts
24-Jan-23 19:37 34.197893 -118.372931 87 865ft 96kts
24-Jan-23 19:38 34.197857 -118.357725 342 710ft 2kts
24-Jan-23 19:39 34.198564 -118.357961 16 712ft 0kts
24-Jan-23 19:40 34.198910 -118.361431 272 720ft 28kts
24-Jan-23 19:41 34.199214 -118.364556 358 725ft 3kts

Navigation Log

Ident Type
Flight plan parsing failed, navigation log unavailable